createdAt,value
2023-05-24T00:00:09.133Z,33.39
2023-05-24T00:00:39.200Z,33.40
2023-05-24T00:01:09.227Z,33.37
2023-05-24T00:01:39.345Z,33.36
2023-05-24T00:02:09.463Z,33.33
2023-05-24T00:02:39.633Z,33.37
2023-05-24T00:03:09.673Z,33.34
2023-05-24T00:03:39.793Z,33.37
2023-05-24T00:04:09.906Z,33.31
2023-05-24T00:04:39.844Z,33.36
2023-05-24T00:05:09.976Z,33.31
2023-05-24T00:05:39.975Z,33.33
2023-05-24T00:06:09.980Z,33.28
2023-05-24T00:06:40.145Z,33.28
2023-05-24T00:07:10.151Z,33.30
2023-05-24T00:07:40.169Z,33.33
2023-05-24T00:08:10.283Z,33.30
2023-05-24T00:08:40.398Z,33.25
2023-05-24T00:09:10.517Z,33.24
2023-05-24T00:09:40.635Z,33.27
2023-05-24T00:10:10.762Z,33.27
2023-05-24T00:10:41.041Z,33.33
2023-05-24T00:11:10.863Z,33.27
2023-05-24T00:11:40.980Z,33.24
2023-05-24T00:12:10.990Z,33.22
2023-05-24T00:12:40.972Z,33.27
2023-05-24T00:13:11.109Z,33.22
2023-05-24T00:13:41.088Z,33.22
2023-05-24T00:14:41.167Z,33.22
2023-05-24T00:15:11.296Z,33.27
2023-05-24T00:15:41.320Z,33.19
2023-05-24T00:16:11.510Z,33.17
2023-05-24T00:17:11.376Z,33.16
2023-05-24T00:17:41.663Z,33.20
2023-05-24T00:18:11.494Z,33.22
2023-05-24T00:18:41.511Z,33.19
2023-05-24T00:19:11.660Z,33.19
2023-05-24T00:19:41.626Z,33.19
2023-05-24T00:20:42.397Z,33.19
2023-05-24T00:21:11.813Z,33.18
2023-05-24T00:21:41.809Z,33.20
2023-05-24T00:22:41.906Z,33.16
2023-05-24T00:23:11.901Z,33.19
2023-05-24T00:23:42.030Z,33.14
2023-05-24T00:24:12.136Z,33.14
2023-05-24T00:24:42.132Z,33.17
2023-05-24T00:25:42.219Z,33.17
2023-05-24T00:26:12.211Z,33.16
2023-05-24T00:27:12.300Z,33.16
2023-05-24T00:27:42.290Z,33.17
2023-05-24T00:28:12.400Z,33.14
2023-05-24T00:28:42.407Z,33.13
2023-05-24T00:29:42.485Z,33.14
2023-05-24T00:30:12.602Z,33.11
2023-05-24T00:30:42.828Z,33.14
2023-05-24T00:31:12.724Z,33.13
2023-05-24T00:31:42.748Z,33.13
2023-05-24T00:32:12.789Z,33.14
2023-05-24T00:32:42.795Z,33.14
2023-05-24T00:33:12.787Z,33.10
2023-05-24T00:33:43.014Z,33.11
2023-05-24T00:34:12.992Z,33.11
2023-05-24T00:34:43.121Z,33.08
2023-05-24T00:35:13.121Z,33.13
2023-05-24T00:35:43.116Z,33.05
2023-05-24T00:36:13.230Z,33.13
2023-05-24T00:36:43.236Z,33.11
2023-05-24T00:37:13.339Z,33.14
2023-05-24T00:37:43.449Z,33.05
2023-05-24T00:38:13.569Z,33.08
2023-05-24T00:38:43.689Z,33.08
2023-05-24T00:39:13.799Z,33.02
2023-05-24T00:39:43.800Z,33.09
2023-05-24T00:40:44.009Z,33.02
2023-05-24T00:41:13.905Z,33.05
2023-05-24T00:41:44.015Z,33.03
2023-05-24T00:42:14.132Z,33.08
2023-05-24T00:42:44.136Z,32.96
2023-05-24T00:43:14.257Z,33.00
2023-05-24T00:43:44.358Z,32.97
2023-05-24T00:44:14.471Z,33.00
2023-05-24T00:44:44.565Z,32.99
2023-05-24T00:45:14.640Z,33.03
2023-05-24T00:45:44.729Z,33.03
2023-05-24T00:46:14.859Z,32.99
2023-05-24T00:46:44.933Z,33.02
2023-05-24T00:47:15.009Z,32.96
2023-05-24T00:47:45.140Z,32.97
2023-05-24T00:48:15.127Z,32.99
2023-05-24T00:48:45.205Z,32.97
2023-05-24T00:49:15.295Z,33.00
2023-05-24T00:49:45.373Z,32.97
2023-05-24T00:50:15.460Z,32.97
2023-05-24T00:50:45.534Z,32.99
2023-05-24T00:51:15.617Z,33.00
2023-05-24T00:51:45.690Z,32.99
2023-05-24T00:52:15.770Z,32.98
2023-05-24T00:52:45.871Z,32.97
2023-05-24T00:53:15.956Z,32.98
2023-05-24T00:53:46.037Z,32.95
2023-05-24T00:54:16.127Z,32.98
2023-05-24T00:54:46.246Z,32.99
2023-05-24T00:55:16.242Z,32.95
2023-05-24T00:55:46.305Z,32.92
2023-05-24T00:56:16.303Z,33.01
2023-05-24T00:57:16.377Z,33.03
2023-05-24T00:57:46.387Z,32.98
2023-05-24T00:58:16.493Z,32.94
2023-05-24T00:58:46.484Z,32.95
2023-05-24T00:59:46.556Z,32.91
2023-05-24T01:00:16.706Z,32.89
2023-05-24T01:00:46.692Z,32.95
2023-05-24T01:01:16.838Z,32.94
2023-05-24T01:01:46.911Z,32.99
2023-05-24T01:02:47.028Z,32.98
2023-05-24T01:03:17.126Z,32.91
2023-05-24T01:03:47.301Z,33.00
2023-05-24T01:04:17.100Z,32.95
2023-05-24T01:04:47.087Z,32.95
2023-05-24T01:05:17.205Z,32.95
2023-05-24T01:05:47.324Z,32.98
2023-05-24T01:06:17.321Z,32.97
2023-05-24T01:06:47.451Z,33.02
2023-05-24T01:07:17.552Z,33.00
2023-05-24T01:07:47.569Z,32.95
2023-05-24T01:08:17.566Z,32.98
2023-05-24T01:08:47.575Z,32.97
2023-05-24T01:09:17.678Z,32.95
2023-05-24T01:09:47.774Z,32.99
2023-05-24T01:10:17.745Z,32.95
2023-05-24T01:10:47.789Z,32.95
2023-05-24T01:11:17.762Z,32.95
2023-05-24T01:11:47.835Z,32.97
2023-05-24T01:12:17.821Z,32.97
2023-05-24T01:12:47.850Z,33.01
2023-05-24T01:13:47.916Z,32.97
2023-05-24T01:14:18.010Z,32.97
2023-05-24T01:14:48.132Z,32.89
2023-05-24T01:15:18.132Z,32.95
2023-05-24T01:16:18.307Z,32.95
2023-05-24T01:16:48.226Z,32.95
2023-05-24T01:17:48.311Z,32.97
2023-05-24T01:18:18.419Z,32.99
2023-05-24T01:18:48.531Z,32.96
2023-05-24T01:19:18.528Z,32.95
2023-05-24T01:19:48.680Z,32.89
2023-05-24T01:20:18.776Z,32.95
2023-05-24T01:20:48.732Z,32.92
2023-05-24T01:21:18.748Z,32.93
2023-05-24T01:21:48.777Z,32.96
2023-05-24T01:22:48.817Z,32.99
2023-05-24T01:23:18.931Z,32.95
2023-05-24T01:23:48.934Z,32.98
2023-05-24T01:24:19.048Z,32.95
2023-05-24T01:24:49.171Z,32.89
2023-05-24T01:25:19.174Z,32.91
2023-05-24T01:25:49.200Z,32.85
2023-05-24T01:26:19.182Z,32.89
2023-05-24T01:26:49.210Z,32.95
2023-05-24T01:27:19.339Z,32.85
2023-05-24T01:27:49.443Z,32.87
2023-05-24T01:28:19.450Z,32.85
2023-05-24T01:28:49.558Z,32.90
2023-05-24T01:29:19.689Z,32.87
2023-05-24T01:29:49.677Z,32.87
2023-05-24T01:30:19.803Z,32.90
2023-05-24T01:30:49.919Z,32.82
2023-05-24T01:31:19.946Z,32.85
2023-05-24T01:31:50.011Z,32.87
2023-05-24T01:32:19.994Z,32.87
2023-05-24T01:32:50.063Z,32.85
2023-05-24T01:33:20.045Z,32.88
2023-05-24T01:33:50.165Z,32.88
2023-05-24T01:34:20.173Z,32.87
2023-05-24T01:35:20.255Z,32.81
2023-05-24T01:35:50.268Z,32.85
2023-05-24T01:36:20.382Z,32.84
2023-05-24T01:36:50.368Z,32.84
2023-05-24T01:37:20.482Z,32.80
2023-05-24T01:37:50.478Z,32.90
2023-05-24T01:38:20.476Z,32.86
2023-05-24T01:38:50.481Z,32.85
2023-05-24T01:39:20.499Z,32.85
2023-05-24T01:40:20.575Z,32.85
2023-05-24T01:40:50.543Z,32.78
2023-05-24T01:41:50.617Z,32.81
2023-05-24T01:42:20.754Z,32.80
2023-05-24T01:42:50.788Z,32.85
2023-05-24T01:43:20.785Z,32.78
2023-05-24T01:43:50.898Z,32.74
2023-05-24T01:44:20.998Z,32.84
2023-05-24T01:44:51.079Z,32.84
2023-05-24T01:45:21.188Z,32.79
2023-05-24T01:45:51.251Z,32.85
2023-05-24T01:46:21.355Z,32.77
2023-05-24T01:46:51.461Z,32.77
2023-05-24T01:47:21.478Z,32.79
2023-05-24T01:47:51.576Z,32.73
2023-05-24T01:48:21.671Z,32.80
2023-05-24T01:48:51.743Z,32.76
2023-05-24T01:49:21.823Z,32.80
2023-05-24T01:49:51.907Z,32.83
2023-05-24T01:50:23.324Z,32.74
2023-05-24T01:50:52.078Z,32.82
2023-05-24T01:51:22.161Z,32.76
2023-05-24T01:51:52.308Z,32.74
2023-05-24T01:52:22.354Z,32.85
2023-05-24T01:52:52.343Z,32.83
2023-05-24T01:53:22.424Z,32.80
2023-05-24T01:53:52.510Z,32.80
2023-05-24T01:54:22.634Z,32.82
2023-05-24T01:54:52.657Z,32.80
2023-05-24T01:55:22.634Z,32.79
2023-05-24T01:56:22.709Z,32.82
2023-05-24T01:56:52.693Z,32.82
2023-05-24T01:57:22.841Z,32.75
2023-05-24T01:57:52.830Z,32.80
2023-05-24T01:58:22.830Z,32.77
2023-05-24T01:58:52.945Z,32.79
2023-05-24T01:59:22.946Z,32.82
2023-05-24T02:00:23.026Z,32.77
2023-05-24T02:00:53.073Z,32.80
2023-05-24T02:01:23.216Z,32.79
2023-05-24T02:01:53.255Z,32.69
2023-05-24T02:02:23.388Z,32.75
2023-05-24T02:02:53.371Z,32.79
2023-05-24T02:03:23.397Z,32.80
2023-05-24T02:03:53.381Z,32.80
2023-05-24T02:04:23.371Z,32.81
2023-05-24T02:05:23.490Z,32.74
2023-05-24T02:05:53.486Z,32.80
2023-05-24T02:06:23.611Z,32.75
2023-05-24T02:06:53.735Z,32.74
2023-05-24T02:07:23.847Z,32.77
2023-05-24T02:07:53.847Z,32.79
2023-05-24T02:08:23.965Z,32.80
2023-05-24T02:08:53.984Z,32.75
2023-05-24T02:09:23.979Z,32.79
2023-05-24T02:09:54.108Z,32.74
2023-05-24T02:10:24.086Z,32.77
2023-05-24T02:11:24.165Z,32.77
2023-05-24T02:11:54.157Z,32.77
2023-05-24T02:12:24.280Z,32.77
2023-05-24T02:12:54.406Z,32.73
2023-05-24T02:13:24.409Z,32.78
2023-05-24T02:14:24.477Z,32.73
2023-05-24T02:14:54.471Z,32.73
2023-05-24T02:15:24.484Z,32.77
2023-05-24T02:16:24.592Z,32.73
2023-05-24T02:16:54.584Z,32.75
2023-05-24T02:17:24.753Z,32.75
2023-05-24T02:17:54.882Z,32.74
2023-05-24T02:18:24.766Z,32.66
2023-05-24T02:18:54.749Z,32.70
2023-05-24T02:19:24.751Z,32.75
2023-05-24T02:20:24.855Z,32.70
2023-05-24T02:20:54.844Z,32.70
2023-05-24T02:21:24.845Z,32.67
2023-05-24T02:21:54.840Z,32.73
2023-05-24T02:22:24.973Z,32.75
2023-05-24T02:22:55.075Z,32.69
2023-05-24T02:23:25.072Z,32.69
2023-05-24T02:23:55.192Z,32.66
2023-05-24T02:24:25.319Z,32.76
2023-05-24T02:24:55.311Z,32.71
2023-05-24T02:25:25.424Z,32.75
2023-05-24T02:25:55.544Z,32.70
2023-05-24T02:26:25.661Z,32.68
2023-05-24T02:26:55.782Z,32.70
2023-05-24T02:27:25.786Z,32.67
2023-05-24T02:28:25.855Z,32.64
2023-05-24T02:28:55.848Z,32.70
2023-05-24T02:29:25.963Z,32.66
2023-05-24T02:29:55.955Z,32.66
2023-05-24T02:30:26.081Z,32.72
2023-05-24T02:30:56.209Z,32.72
2023-05-24T02:31:26.347Z,32.70
2023-05-24T02:31:56.390Z,32.64
2023-05-24T02:32:26.452Z,32.68
2023-05-24T02:32:56.422Z,32.67
2023-05-24T02:33:26.452Z,32.70
2023-05-24T02:33:56.464Z,32.66
2023-05-24T02:34:26.581Z,32.67
2023-05-24T02:34:56.574Z,32.64
2023-05-24T02:35:56.658Z,32.59
2023-05-24T02:36:26.654Z,32.61
2023-05-24T02:37:26.726Z,32.65
2023-05-24T02:37:56.837Z,32.67
2023-05-24T02:38:26.847Z,32.62
2023-05-24T02:38:56.945Z,32.66
2023-05-24T02:39:27.075Z,32.67
2023-05-24T02:39:57.061Z,32.67
2023-05-24T02:40:27.091Z,32.66
2023-05-24T02:40:57.098Z,32.64
2023-05-24T02:41:27.129Z,32.66
2023-05-24T02:41:57.122Z,32.65
2023-05-24T02:42:57.188Z,32.62
2023-05-24T02:43:27.305Z,32.61
2023-05-24T02:43:57.424Z,32.58
2023-05-24T02:44:27.518Z,32.59
2023-05-24T02:44:57.596Z,32.64
2023-05-24T02:45:27.684Z,32.68
2023-05-24T02:45:57.779Z,32.64
2023-05-24T02:46:27.893Z,32.56
2023-05-24T02:46:57.890Z,32.61
2023-05-24T02:47:27.996Z,32.67
2023-05-24T02:47:57.996Z,32.64
2023-05-24T02:48:27.981Z,32.64
2023-05-24T02:48:58.108Z,32.68
2023-05-24T02:49:28.163Z,32.59
2023-05-24T02:49:58.242Z,32.61
2023-05-24T02:50:28.329Z,32.59
2023-05-24T02:50:58.409Z,32.59
2023-05-24T02:51:28.496Z,32.59
2023-05-24T02:51:58.576Z,32.57
2023-05-24T02:52:28.659Z,32.59
2023-05-24T02:52:58.747Z,32.53
2023-05-24T02:53:28.821Z,32.62
2023-05-24T02:53:58.908Z,32.62
2023-05-24T02:54:29.017Z,32.60
2023-05-24T02:54:59.133Z,32.61
2023-05-24T02:55:29.211Z,32.61
2023-05-24T02:55:59.185Z,32.62
2023-05-24T02:56:29.335Z,32.61
2023-05-24T02:56:59.340Z,32.56
2023-05-24T02:57:29.458Z,32.61
2023-05-24T02:57:59.570Z,32.57
2023-05-24T02:58:29.563Z,32.53
2023-05-24T02:58:59.682Z,32.57
2023-05-24T02:59:29.733Z,32.56
2023-05-24T02:59:59.854Z,32.59
2023-05-24T03:00:29.849Z,32.59
2023-05-24T03:00:59.973Z,32.57
2023-05-24T03:01:30.110Z,32.57
2023-05-24T03:02:00.246Z,32.64
2023-05-24T03:02:30.186Z,32.54
2023-05-24T03:03:00.375Z,32.52
2023-05-24T03:03:30.384Z,32.51
2023-05-24T03:04:00.526Z,32.54
2023-05-24T03:04:30.534Z,32.56
2023-05-24T03:05:00.525Z,32.54
2023-05-24T03:05:30.654Z,32.52
2023-05-24T03:06:00.769Z,32.57
2023-05-24T03:06:30.877Z,32.54
2023-05-24T03:07:00.996Z,32.59
2023-05-24T03:07:30.993Z,32.54
2023-05-24T03:08:01.108Z,32.52
2023-05-24T03:08:31.107Z,32.55
2023-05-24T03:09:01.238Z,32.52
2023-05-24T03:09:31.229Z,32.55
2023-05-24T03:10:31.334Z,32.57
2023-05-24T03:11:01.333Z,32.57
2023-05-24T03:12:01.405Z,32.52
2023-05-24T03:12:31.418Z,32.55
2023-05-24T03:13:01.528Z,32.55
2023-05-24T03:13:31.669Z,32.51
2023-05-24T03:14:01.661Z,32.55
2023-05-24T03:15:01.717Z,32.52
2023-05-24T03:15:31.743Z,32.51
2023-05-24T03:16:01.875Z,32.54
2023-05-24T03:16:31.928Z,32.54
2023-05-24T03:17:01.906Z,32.51
2023-05-24T03:17:31.951Z,32.54
2023-05-24T03:18:02.001Z,32.49
2023-05-24T03:18:32.021Z,32.52
2023-05-24T03:19:02.139Z,32.52
2023-05-24T03:19:32.282Z,32.52
2023-05-24T03:20:02.320Z,32.52
2023-05-24T03:20:32.383Z,32.55
2023-05-24T03:21:02.416Z,32.57
2023-05-24T03:21:32.408Z,32.53
2023-05-24T03:22:02.407Z,32.49
2023-05-24T03:22:32.525Z,32.52
2023-05-24T03:23:02.660Z,32.53
2023-05-24T03:23:32.656Z,32.49
2023-05-24T03:24:02.664Z,32.53
2023-05-24T03:24:32.658Z,32.50
2023-05-24T03:25:02.672Z,32.52
2023-05-24T03:26:02.729Z,32.50
2023-05-24T03:26:32.723Z,32.52
2023-05-24T03:27:32.798Z,32.53
2023-05-24T03:28:02.811Z,32.50
2023-05-24T03:28:32.925Z,32.55
2023-05-24T03:29:03.035Z,32.49
2023-05-24T03:29:33.026Z,32.53
2023-05-24T03:30:03.065Z,32.50
2023-05-24T03:30:33.088Z,32.49
2023-05-24T03:31:03.109Z,32.50
2023-05-24T03:31:33.267Z,32.52
2023-05-24T03:32:03.399Z,32.57
2023-05-24T03:32:33.460Z,32.59
2023-05-24T03:33:03.403Z,32.61
2023-05-24T03:33:33.413Z,32.67
2023-05-24T03:34:03.443Z,32.67
2023-05-24T03:34:33.439Z,32.67
2023-05-24T03:35:03.573Z,32.68
2023-05-24T03:35:33.548Z,32.67
2023-05-24T03:36:03.677Z,32.71
2023-05-24T03:36:33.661Z,32.80
2023-05-24T03:37:03.793Z,32.81
2023-05-24T03:37:33.784Z,32.79
2023-05-24T03:38:03.904Z,32.81
2023-05-24T03:38:34.022Z,32.85
2023-05-24T03:39:04.151Z,32.91
2023-05-24T03:39:34.136Z,32.85
2023-05-24T03:40:34.213Z,32.54
2023-05-24T03:41:04.216Z,32.41
2023-05-24T03:41:34.259Z,32.24
2023-05-24T03:42:04.257Z,32.10
2023-05-24T03:42:34.264Z,32.04
2023-05-24T03:43:04.700Z,31.84
2023-05-24T03:43:34.385Z,31.56
2023-05-24T03:44:04.377Z,31.41
2023-05-24T03:44:34.469Z,31.24
2023-05-24T03:45:04.535Z,31.39
2023-05-24T03:45:38.992Z,31.18
2023-05-24T03:46:04.820Z,31.11
2023-05-24T03:46:34.868Z,30.99
2023-05-24T03:47:04.824Z,31.03
2023-05-24T03:47:34.934Z,31.00
2023-05-24T03:48:05.063Z,30.92
2023-05-24T03:48:34.992Z,30.89
2023-05-24T03:49:05.088Z,30.89
2023-05-24T03:49:35.150Z,30.84
2023-05-24T03:50:05.258Z,30.70
2023-05-24T03:50:35.617Z,30.73
2023-05-24T03:51:05.373Z,30.73
2023-05-24T03:51:35.457Z,30.80
2023-05-24T03:52:05.544Z,30.69
2023-05-24T03:52:35.630Z,30.69
2023-05-24T03:53:05.733Z,30.78
2023-05-24T03:53:35.805Z,30.66
2023-05-24T03:54:05.884Z,30.60
2023-05-24T03:54:35.995Z,30.64
2023-05-24T03:55:06.005Z,30.58
2023-05-24T03:55:36.084Z,30.66
2023-05-24T03:56:06.077Z,30.52
2023-05-24T03:56:36.088Z,30.51
2023-05-24T03:57:06.084Z,30.50
2023-05-24T03:57:36.199Z,30.57
2023-05-24T03:58:06.202Z,30.51
2023-05-24T03:58:36.311Z,30.40
2023-05-24T03:59:06.439Z,30.49
2023-05-24T03:59:36.522Z,30.45
2023-05-24T04:00:06.493Z,30.49
2023-05-24T04:00:36.505Z,30.48
2023-05-24T04:01:06.493Z,30.48
2023-05-24T04:02:06.619Z,30.43
2023-05-24T04:02:36.650Z,30.48
2023-05-24T04:03:06.799Z,30.46
2023-05-24T04:03:36.766Z,30.36
2023-05-24T04:04:06.758Z,30.41
2023-05-24T04:04:36.784Z,30.43
2023-05-24T04:05:06.790Z,30.39
2023-05-24T04:06:06.894Z,30.43
2023-05-24T04:06:36.895Z,30.45
2023-05-24T04:07:07.007Z,30.56
2023-05-24T04:07:37.001Z,30.55
2023-05-24T04:08:07.119Z,30.61
2023-05-24T04:08:37.236Z,30.62
2023-05-24T04:09:07.248Z,30.61
2023-05-24T04:09:37.255Z,30.66
2023-05-24T04:10:37.330Z,30.51
2023-05-24T04:11:07.443Z,30.53
2023-05-24T04:11:37.438Z,30.33
2023-05-24T04:12:37.518Z,30.16
2023-05-24T04:13:07.643Z,30.16
2023-05-24T04:13:37.757Z,30.19
2023-05-24T04:14:07.882Z,30.10
2023-05-24T04:14:37.876Z,30.07
2023-05-24T04:15:07.997Z,30.06
2023-05-24T04:15:38.133Z,30.04
2023-05-24T04:16:08.115Z,30.14
2023-05-24T04:16:38.155Z,30.03
2023-05-24T04:17:08.198Z,30.02
2023-05-24T04:17:38.499Z,29.95
2023-05-24T04:18:08.432Z,29.91
2023-05-24T04:18:38.507Z,29.91
2023-05-24T04:19:08.454Z,30.00
2023-05-24T04:19:38.444Z,30.03
2023-05-24T04:20:38.595Z,30.00
2023-05-24T04:21:08.624Z,29.87
2023-05-24T04:21:38.719Z,29.90
2023-05-24T04:22:08.837Z,29.90
2023-05-24T04:22:38.962Z,29.85
2023-05-24T04:23:08.973Z,29.82
2023-05-24T04:23:38.978Z,29.78
2023-05-24T04:24:08.977Z,29.73
2023-05-24T04:25:09.105Z,29.72
2023-05-24T04:25:39.101Z,29.75
2023-05-24T04:26:09.224Z,29.78
2023-05-24T04:26:39.216Z,29.70
2023-05-24T04:27:09.333Z,29.72
2023-05-24T04:27:39.466Z,29.78
2023-05-24T04:28:09.481Z,29.72
2023-05-24T04:29:09.560Z,29.64
2023-05-24T04:29:39.652Z,29.69
2023-05-24T04:30:09.766Z,29.77
2023-05-24T04:30:39.925Z,29.67
2023-05-24T04:31:10.095Z,29.70
2023-05-24T04:31:40.057Z,29.64
2023-05-24T04:32:10.077Z,29.75
2023-05-24T04:32:40.231Z,29.70
2023-05-24T04:33:10.269Z,29.69
2023-05-24T04:33:40.311Z,29.65
2023-05-24T04:34:10.408Z,29.64
2023-05-24T04:34:40.519Z,29.61
2023-05-24T04:35:10.642Z,29.73
2023-05-24T04:35:40.645Z,29.63
2023-05-24T04:36:10.752Z,29.63
2023-05-24T04:36:40.767Z,29.57
2023-05-24T04:37:10.800Z,29.71
2023-05-24T04:37:40.808Z,29.72
2023-05-24T04:38:10.797Z,29.71
2023-05-24T04:39:10.857Z,29.82
2023-05-24T04:39:41.061Z,29.82
2023-05-24T04:40:11.044Z,29.90
2023-05-24T04:40:41.419Z,29.93
2023-05-24T04:41:11.274Z,29.92
2023-05-24T04:41:41.286Z,29.89
2023-05-24T04:42:11.285Z,29.98
2023-05-24T04:43:11.349Z,29.94
2023-05-24T04:43:41.462Z,30.00
2023-05-24T04:44:11.573Z,30.03
2023-05-24T04:44:41.654Z,30.09
2023-05-24T04:45:11.732Z,30.08
2023-05-24T04:45:41.841Z,30.16
2023-05-24T04:46:11.961Z,30.28
2023-05-24T04:46:41.976Z,30.41
2023-05-24T04:47:12.021Z,30.44
2023-05-24T04:47:42.097Z,30.59
2023-05-24T04:48:12.167Z,30.67
2023-05-24T04:48:42.248Z,30.82
2023-05-24T04:49:12.328Z,30.95
2023-05-24T04:49:42.432Z,30.99
2023-05-24T04:50:12.413Z,31.03
2023-05-24T04:50:42.765Z,31.20
2023-05-24T04:51:12.587Z,31.21
2023-05-24T04:51:42.700Z,31.29
2023-05-24T04:52:12.787Z,31.29
2023-05-24T04:52:42.873Z,31.34
2023-05-24T04:53:12.954Z,31.31
2023-05-24T04:53:43.616Z,31.34
2023-05-24T04:54:13.080Z,31.28
2023-05-24T04:55:13.156Z,31.31
2023-05-24T04:55:43.164Z,31.26
2023-05-24T04:56:13.171Z,31.27
2023-05-24T04:56:43.208Z,31.28
2023-05-24T04:57:13.322Z,31.21
2023-05-24T04:57:43.322Z,31.21
2023-05-24T04:58:43.309Z,31.21
2023-05-24T04:59:13.426Z,31.18
2023-05-24T04:59:43.439Z,31.13
2023-05-24T05:00:13.563Z,31.12
2023-05-24T05:00:43.788Z,31.10
2023-05-24T05:01:13.619Z,31.04
2023-05-24T05:01:43.660Z,31.04
2023-05-24T05:02:13.799Z,31.00
2023-05-24T05:02:43.778Z,30.93
2023-05-24T05:03:13.929Z,30.89
2023-05-24T05:03:43.939Z,30.91
2023-05-24T05:04:13.967Z,30.83
2023-05-24T05:04:43.967Z,30.80
2023-05-24T05:05:13.966Z,30.83
2023-05-24T05:06:14.042Z,30.81
2023-05-24T05:06:44.161Z,30.77
2023-05-24T05:07:14.311Z,30.75
2023-05-24T05:07:44.281Z,30.74
2023-05-24T05:08:14.402Z,30.69
2023-05-24T05:08:44.406Z,30.60
2023-05-24T05:09:14.515Z,30.47
2023-05-24T05:09:44.529Z,30.51
2023-05-24T05:10:14.560Z,30.32
2023-05-24T05:10:44.729Z,30.20
2023-05-24T05:11:14.745Z,30.26
2023-05-24T05:11:44.757Z,30.31
2023-05-24T05:12:14.866Z,30.15
2023-05-24T05:12:44.980Z,30.19
2023-05-24T05:13:15.097Z,30.18
2023-05-24T05:13:45.211Z,30.10
2023-05-24T05:14:15.344Z,30.14
2023-05-24T05:14:45.340Z,30.10
2023-05-24T05:15:15.452Z,30.14
2023-05-24T05:15:45.451Z,30.14
2023-05-24T05:16:15.593Z,30.22
2023-05-24T05:16:45.607Z,30.17
2023-05-24T05:17:15.608Z,30.13
2023-05-24T05:17:45.806Z,30.17
2023-05-24T05:18:15.862Z,30.13
2023-05-24T05:18:45.865Z,30.17
2023-05-24T05:19:15.859Z,30.29
2023-05-24T05:19:45.977Z,30.32
2023-05-24T05:20:16.002Z,30.25
2023-05-24T05:20:46.346Z,30.13
2023-05-24T05:21:16.032Z,30.11
2023-05-24T05:21:46.144Z,30.05
2023-05-24T05:22:16.137Z,30.10
2023-05-24T05:22:46.277Z,30.14
2023-05-24T05:23:16.449Z,30.14
2023-05-24T05:23:46.439Z,30.27
2023-05-24T05:24:46.522Z,30.08
2023-05-24T05:25:16.513Z,30.16
2023-05-24T05:25:46.655Z,30.04
2023-05-24T05:26:16.711Z,30.08
2023-05-24T05:26:46.839Z,30.12
2023-05-24T05:27:16.947Z,30.10
2023-05-24T05:27:46.972Z,30.05
2023-05-24T05:28:16.976Z,30.02
2023-05-24T05:28:46.972Z,30.04
2023-05-24T05:29:17.092Z,30.09
2023-05-24T05:29:47.102Z,30.02
2023-05-24T05:30:17.213Z,30.07
2023-05-24T05:30:47.240Z,30.13
2023-05-24T05:31:17.221Z,30.07
2023-05-24T05:31:47.358Z,30.06
2023-05-24T05:32:17.461Z,30.07
2023-05-24T05:32:47.547Z,30.13
2023-05-24T05:33:17.546Z,30.13
2023-05-24T05:33:47.574Z,30.16
2023-05-24T05:34:17.561Z,30.19
2023-05-24T05:34:47.697Z,30.16
2023-05-24T05:35:17.699Z,30.16
2023-05-24T05:35:47.819Z,30.15
2023-05-24T05:36:17.942Z,30.15
2023-05-24T05:36:47.950Z,30.12
2023-05-24T05:37:17.976Z,30.14
2023-05-24T05:37:47.962Z,30.08
2023-05-24T05:38:17.983Z,30.14
2023-05-24T05:38:48.075Z,30.04
2023-05-24T05:39:18.078Z,30.06
2023-05-24T05:40:18.153Z,30.08
2023-05-24T05:40:48.266Z,30.10
2023-05-24T05:41:18.259Z,30.05
2023-05-24T05:41:48.399Z,30.12
2023-05-24T05:42:18.394Z,30.12
2023-05-24T05:43:18.494Z,30.19
2023-05-24T05:43:48.613Z,30.12
2023-05-24T05:44:18.707Z,30.18
2023-05-24T05:44:48.789Z,30.16
2023-05-24T05:45:18.885Z,30.15
2023-05-24T05:45:49.146Z,30.19
2023-05-24T05:46:19.105Z,30.05
2023-05-24T05:46:49.233Z,30.08
2023-05-24T05:47:19.188Z,30.16
2023-05-24T05:47:49.347Z,30.12
2023-05-24T05:48:19.305Z,30.15
2023-05-24T05:48:49.382Z,30.15
2023-05-24T05:49:19.466Z,30.19
2023-05-24T05:49:49.547Z,30.29
2023-05-24T05:50:19.631Z,30.38
2023-05-24T05:50:49.707Z,30.36
2023-05-24T05:51:19.800Z,30.35
2023-05-24T05:51:49.889Z,30.47
2023-05-24T05:52:19.977Z,30.49
2023-05-24T05:52:50.052Z,30.57
2023-05-24T05:53:20.134Z,30.62
2023-05-24T05:53:50.344Z,30.67
2023-05-24T05:54:20.320Z,30.66
2023-05-24T05:55:20.404Z,30.66
2023-05-24T05:55:50.538Z,30.68
2023-05-24T05:56:20.595Z,30.67
2023-05-24T05:56:50.581Z,30.69
2023-05-24T05:57:20.691Z,30.80
2023-05-24T05:57:50.822Z,30.85
2023-05-24T05:58:20.810Z,30.96
2023-05-24T05:59:20.884Z,30.93
2023-05-24T05:59:50.876Z,30.94
2023-05-24T06:00:20.996Z,31.02
2023-05-24T06:00:51.091Z,30.99
2023-05-24T06:01:21.082Z,30.99
2023-05-24T06:01:51.192Z,31.30
2023-05-24T06:02:21.282Z,31.25
2023-05-24T06:02:51.279Z,31.22
2023-05-24T06:03:21.505Z,31.25
2023-05-24T06:03:51.524Z,31.33
2023-05-24T06:04:21.424Z,31.25
2023-05-24T06:04:51.474Z,31.27
2023-05-24T06:05:21.506Z,31.41
2023-05-24T06:05:51.510Z,31.36
2023-05-24T06:06:22.143Z,31.41
2023-05-24T06:06:51.512Z,31.38
2023-05-24T06:07:21.505Z,31.44
2023-05-24T06:07:51.504Z,31.44
2023-05-24T06:08:51.593Z,31.30
2023-05-24T06:09:21.591Z,31.39
2023-05-24T06:09:51.587Z,31.33
2023-05-24T06:10:21.799Z,31.34
2023-05-24T06:10:53.080Z,31.39
2023-05-24T06:11:21.682Z,31.35
2023-05-24T06:11:51.796Z,31.43
2023-05-24T06:12:21.911Z,31.44
2023-05-24T06:12:51.908Z,31.39
2023-05-24T06:13:22.027Z,31.32
2023-05-24T06:13:52.139Z,31.37
2023-05-24T06:14:22.254Z,31.43
2023-05-24T06:14:52.215Z,31.43
2023-05-24T06:15:22.211Z,31.46
2023-05-24T06:16:22.282Z,31.57
2023-05-24T06:16:52.388Z,31.54
2023-05-24T06:17:22.571Z,31.57
2023-05-24T06:17:52.650Z,31.63
2023-05-24T06:18:22.639Z,31.55
2023-05-24T06:19:04.704Z,31.57
2023-05-24T06:19:22.665Z,31.58
2023-05-24T06:19:52.728Z,31.57
2023-05-24T06:20:22.791Z,31.59
2023-05-24T06:20:52.780Z,31.56
2023-05-24T06:21:22.906Z,31.51
2023-05-24T06:21:52.903Z,31.53
2023-05-24T06:22:53.006Z,31.48
2023-05-24T06:23:23.001Z,31.60
2023-05-24T06:23:53.131Z,31.64
2023-05-24T06:24:23.130Z,31.54
2023-05-24T06:24:53.145Z,31.58
2023-05-24T06:25:53.199Z,31.56
2023-05-24T06:26:23.196Z,31.54
2023-05-24T06:26:53.203Z,31.57
2023-05-24T06:27:53.270Z,31.59
2023-05-24T06:28:23.277Z,31.60
2023-05-24T06:28:53.280Z,31.58
2023-05-24T06:29:53.387Z,31.59
2023-05-24T06:30:23.455Z,31.58
2023-05-24T06:30:53.567Z,31.61
2023-05-24T06:31:23.638Z,31.58
2023-05-24T06:31:53.700Z,31.58
2023-05-24T06:32:23.740Z,31.64
2023-05-24T06:32:53.867Z,31.61
2023-05-24T06:33:23.771Z,31.47
2023-05-24T06:34:23.844Z,31.52
2023-05-24T06:34:53.962Z,31.47
2023-05-24T06:35:24.083Z,31.55
2023-05-24T06:35:54.073Z,31.46
2023-05-24T06:36:24.196Z,31.46
2023-05-24T06:36:54.314Z,31.41
2023-05-24T06:37:24.311Z,31.45
2023-05-24T06:37:54.321Z,31.49
2023-05-24T06:38:24.310Z,31.52
2023-05-24T06:38:54.309Z,31.47
2023-05-24T06:39:24.428Z,31.49
2023-05-24T06:39:54.545Z,31.44
2023-05-24T06:40:24.564Z,31.43
2023-05-24T06:41:24.626Z,31.54
2023-05-24T06:41:54.618Z,31.46
2023-05-24T06:42:24.731Z,31.50
2023-05-24T06:42:54.846Z,31.50
2023-05-24T06:43:24.969Z,31.52
2023-05-24T06:43:54.994Z,31.58
2023-05-24T06:44:25.462Z,31.52
2023-05-24T06:44:55.063Z,31.69
2023-05-24T06:45:25.177Z,31.66
2023-05-24T06:45:55.248Z,31.69
2023-05-24T06:46:25.338Z,31.61
2023-05-24T06:46:55.470Z,31.57
2023-05-24T06:47:25.591Z,31.57
2023-05-24T06:48:25.565Z,31.54
2023-05-24T06:48:55.776Z,31.52
2023-05-24T06:49:25.668Z,31.54
2023-05-24T06:49:55.754Z,31.57
2023-05-24T06:50:25.924Z,31.51
2023-05-24T06:50:55.941Z,31.49
2023-05-24T06:51:25.997Z,31.46
2023-05-24T06:51:56.111Z,31.44
2023-05-24T06:52:26.074Z,31.51
2023-05-24T06:52:56.160Z,31.48
2023-05-24T06:53:26.238Z,31.46
2023-05-24T06:53:56.315Z,31.46
2023-05-24T06:54:26.327Z,31.45
2023-05-24T06:55:26.435Z,31.48
2023-05-24T06:55:57.736Z,31.51
2023-05-24T06:56:26.537Z,31.49
2023-05-24T06:56:56.529Z,31.52
2023-05-24T06:57:56.612Z,31.53
2023-05-24T06:58:26.599Z,31.43